createdAt,value
2018-12-15T00:00:17.125Z,59.00
2018-12-15T00:02:49.963Z,61.57
2018-12-15T00:05:22.733Z,79.00
2018-12-15T00:07:53.443Z,73.20
2018-12-15T00:10:24.083Z,86.07
2018-12-15T00:12:54.880Z,97.27
2018-12-15T00:15:25.583Z,92.20
2018-12-15T00:17:56.267Z,86.80
2018-12-15T00:20:26.914Z,77.27
2018-12-15T00:22:57.643Z,88.87
2018-12-15T00:25:28.326Z,99.07
2018-12-15T00:27:59.453Z,105.40
2018-12-15T00:30:30.190Z,77.50
2018-12-15T00:33:00.836Z,124.67
2018-12-15T00:35:31.537Z,108.30
2018-12-15T00:38:02.222Z,103.63
2018-12-15T00:40:32.878Z,106.50
2018-12-15T00:43:03.532Z,71.43
2018-12-15T00:45:34.334Z,79.63
2018-12-15T00:48:04.966Z,62.80
2018-12-15T00:50:36.448Z,57.80
2018-12-15T00:53:10.349Z,83.23
2018-12-15T00:55:40.994Z,66.13
2018-12-15T00:58:11.662Z,64.67
2018-12-15T01:00:42.241Z,38.90
2018-12-15T01:03:12.885Z,27.70
2018-12-15T01:05:43.625Z,22.97
2018-12-15T01:08:14.323Z,22.23
2018-12-15T01:10:45.076Z,21.40
2018-12-15T01:13:15.794Z,19.63
2018-12-15T01:15:46.582Z,20.30
2018-12-15T01:18:17.296Z,18.73
2018-12-15T01:20:47.974Z,17.83
2018-12-15T01:23:18.535Z,16.70
2018-12-15T01:25:49.242Z,18.63
2018-12-15T01:28:19.874Z,19.17
2018-12-15T01:30:50.736Z,18.13
2018-12-15T01:33:21.388Z,14.20
2018-12-15T01:35:52.051Z,14.87
2018-12-15T01:38:22.653Z,14.13
2018-12-15T01:40:53.320Z,16.67
2018-12-15T01:43:24.014Z,16.67
2018-12-15T01:45:54.772Z,15.80
2018-12-15T01:48:25.466Z,18.20
2018-12-15T01:50:56.163Z,18.23
2018-12-15T01:53:26.826Z,19.23
2018-12-15T01:55:57.475Z,17.33
2018-12-15T01:58:28.112Z,17.07
2018-12-15T02:00:58.784Z,15.97
2018-12-15T02:03:29.410Z,17.73
2018-12-15T02:06:00.076Z,16.13
2018-12-15T02:08:30.757Z,15.37
2018-12-15T02:11:03.557Z,17.57
2018-12-15T02:13:34.187Z,16.20
2018-12-15T02:16:05.127Z,17.60
2018-12-15T02:18:52.513Z,17.53
2018-12-15T02:21:49.142Z,19.57
2018-12-15T02:24:19.819Z,23.73
2018-12-15T02:26:50.411Z,26.07
2018-12-15T02:29:21.049Z,29.80
2018-12-15T02:31:51.730Z,21.40
2018-12-15T02:34:22.434Z,22.97
2018-12-15T02:36:53.086Z,27.03
2018-12-15T02:39:23.941Z,42.83
2018-12-15T02:41:55.865Z,46.83
2018-12-15T02:44:34.639Z,63.80
2018-12-15T02:47:05.415Z,83.87
2018-12-15T02:49:36.109Z,41.33
2018-12-15T02:52:06.777Z,71.33
2018-12-15T02:54:38.346Z,69.33
2018-12-15T02:57:21.775Z,72.27
2018-12-15T02:59:52.505Z,50.30
2018-12-15T03:02:35.354Z,59.27
2018-12-15T03:05:06.376Z,49.30
2018-12-15T03:07:36.999Z,54.07
2018-12-15T03:10:08.613Z,52.67
2018-12-15T03:12:39.330Z,53.47
2018-12-15T03:15:22.701Z,53.33
2018-12-15T03:17:57.314Z,32.90
2018-12-15T03:20:28.052Z,43.63
2018-12-15T03:22:58.758Z,57.83
2018-12-15T03:25:29.499Z,48.10
2018-12-15T03:28:01.003Z,40.30
2018-12-15T03:30:32.566Z,40.87
2018-12-15T03:33:11.478Z,54.23
2018-12-15T03:35:50.485Z,58.00
2018-12-15T03:38:32.139Z,76.17
2018-12-15T03:41:10.039Z,68.23
2018-12-15T03:43:55.750Z,65.50
2018-12-15T03:46:34.583Z,68.90
2018-12-15T03:49:12.414Z,82.03
2018-12-15T03:51:43.146Z,82.10
2018-12-15T03:54:13.784Z,96.77
2018-12-15T03:56:47.757Z,76.17
2018-12-15T03:59:32.818Z,108.23
2018-12-15T04:02:12.305Z,87.63
2018-12-15T04:04:43.065Z,90.07
2018-12-15T04:11:05.806Z,80.57
2018-12-15T04:13:36.484Z,70.47
2018-12-15T04:16:15.345Z,45.30
2018-12-15T04:19:02.139Z,57.90
2018-12-15T04:21:36.830Z,63.47
2018-12-15T04:24:28.519Z,71.20
2018-12-15T04:26:59.188Z,73.87
2018-12-15T04:29:46.338Z,70.70
2018-12-15T04:32:45.157Z,63.33
2018-12-15T04:35:11.575Z,63.10
2018-12-15T04:37:42.203Z,74.97
2018-12-15T04:40:46.751Z,78.63
2018-12-15T04:43:21.453Z,99.47
2018-12-15T04:46:07.117Z,91.80
2018-12-15T04:48:52.719Z,87.03
2018-12-15T04:55:10.525Z,133.83
2018-12-15T04:57:41.294Z,132.83
2018-12-15T05:00:25.851Z,117.63
2018-12-15T05:02:56.598Z,102.03
2018-12-15T05:05:27.306Z,88.07
2018-12-15T05:08:27.735Z,83.93
2018-12-15T05:11:09.375Z,91.87
2018-12-15T05:13:47.303Z,91.10
2018-12-15T05:16:26.021Z,83.83
2018-12-15T05:19:00.713Z,106.30
2018-12-15T05:21:34.826Z,77.20
2018-12-15T05:24:13.616Z,79.27
2018-12-15T05:26:51.500Z,80.10
2018-12-15T05:29:38.494Z,89.13
2018-12-15T05:32:12.371Z,122.93
2018-12-15T05:34:57.031Z,138.67
2018-12-15T05:37:31.756Z,130.80
2018-12-15T05:40:15.430Z,140.80
2018-12-15T05:42:50.103Z,103.93
2018-12-15T05:45:20.731Z,117.70
2018-12-15T05:51:34.221Z,111.27
2018-12-15T05:54:14.003Z,99.40
2018-12-15T05:57:07.808Z,89.03
2018-12-15T05:59:45.707Z,103.30
2018-12-15T06:02:42.673Z,137.17
2018-12-15T06:05:21.923Z,104.93
2018-12-15T06:07:59.783Z,120.03
2018-12-15T06:10:43.212Z,67.40
2018-12-15T06:13:26.063Z,113.37
2018-12-15T06:16:04.582Z,92.80
2018-12-15T06:18:42.968Z,97.47
2018-12-15T06:21:26.420Z,80.90
2018-12-15T06:24:35.511Z,91.27
2018-12-15T06:30:40.739Z,121.00
2018-12-15T06:33:11.461Z,129.17
2018-12-15T06:35:42.171Z,119.17
2018-12-15T06:38:59.110Z,112.43
2018-12-15T06:41:29.939Z,110.13
2018-12-15T06:44:13.549Z,104.07
2018-12-15T06:47:10.106Z,134.67
2018-12-15T06:49:40.955Z,140.90
2018-12-15T06:52:11.694Z,102.93
2018-12-15T06:54:42.454Z,139.00
2018-12-15T06:57:13.147Z,137.10
2018-12-15T06:59:43.880Z,160.10
2018-12-15T07:02:14.733Z,142.87
2018-12-15T07:04:46.367Z,148.57
2018-12-15T07:07:17.839Z,146.00
2018-12-15T07:17:09.118Z,163.10
2018-12-15T07:19:40.584Z,162.03
2018-12-15T07:22:51.649Z,172.53
2018-12-15T07:25:35.067Z,168.13
2018-12-15T07:28:05.828Z,154.20
2018-12-15T07:30:47.434Z,154.93
2018-12-15T07:33:18.132Z,130.33
2018-12-15T07:35:56.795Z,111.07
2018-12-15T07:38:41.552Z,129.20
2018-12-15T07:41:12.218Z,110.93
2018-12-15T07:43:43.069Z,107.80
2018-12-15T07:46:13.776Z,113.80
2018-12-15T07:48:44.566Z,109.70
2018-12-15T07:51:16.842Z,110.30
2018-12-15T07:53:57.879Z,103.00
2018-12-15T07:56:38.544Z,74.50
2018-12-15T07:59:17.301Z,115.50
2018-12-15T08:01:56.019Z,106.17
2018-12-15T08:04:26.757Z,148.77
2018-12-15T08:07:10.391Z,120.63
2018-12-15T08:09:43.499Z,82.80
2018-12-15T08:15:53.930Z,104.97
2018-12-15T08:18:24.720Z,88.57
2018-12-15T08:21:11.196Z,78.50
2018-12-15T08:27:11.096Z,43.87
2018-12-15T08:29:41.781Z,50.43
2018-12-15T08:32:12.554Z,57.67
2018-12-15T08:34:50.711Z,47.77
2018-12-15T08:37:21.384Z,48.27
2018-12-15T08:40:19.599Z,46.03
2018-12-15T08:42:50.256Z,35.60
2018-12-15T08:45:20.949Z,41.63
2018-12-15T08:47:51.696Z,43.50
2018-12-15T08:50:22.589Z,39.37
2018-12-15T08:52:53.377Z,36.93
2018-12-15T08:55:24.136Z,32.27
2018-12-15T08:57:54.858Z,37.20
2018-12-15T09:00:48.679Z,32.60
2018-12-15T09:03:19.377Z,38.80
2018-12-15T09:05:51.201Z,47.83
2018-12-15T09:08:21.854Z,53.97
2018-12-15T09:10:52.563Z,47.20
2018-12-15T09:13:23.233Z,53.70
2018-12-15T09:15:53.926Z,54.67
2018-12-15T09:18:34.685Z,62.43
2018-12-15T09:21:05.402Z,54.37
2018-12-15T09:23:36.069Z,46.20
2018-12-15T09:26:31.715Z,72.53
2018-12-15T09:29:02.355Z,50.97
2018-12-15T09:31:33.136Z,92.63
2018-12-15T09:34:10.967Z,70.30
2018-12-15T09:37:28.063Z,85.40
2018-12-15T09:40:11.082Z,89.17
2018-12-15T09:46:03.637Z,85.07
2018-12-15T09:48:34.300Z,94.00
2018-12-15T09:51:04.987Z,101.47
2018-12-15T09:53:35.800Z,78.07
2018-12-15T09:56:06.672Z,86.70
2018-12-15T09:58:37.313Z,67.47
2018-12-15T10:01:08.027Z,94.90
2018-12-15T10:03:38.757Z,79.97
2018-12-15T10:06:39.094Z,77.83
2018-12-15T10:09:09.703Z,85.50
2018-12-15T10:11:40.425Z,82.17
2018-12-15T10:14:11.154Z,90.83
2018-12-15T10:16:43.029Z,107.93
2018-12-15T10:19:13.781Z,116.80
2018-12-15T10:21:44.467Z,116.93
2018-12-15T10:24:15.162Z,101.37
2018-12-15T10:26:47.038Z,107.50
2018-12-15T10:29:22.444Z,108.43
2018-12-15T10:31:58.915Z,116.37
2018-12-15T10:34:29.543Z,162.83
2018-12-15T10:37:00.248Z,130.47
2018-12-15T10:39:30.985Z,145.83
2018-12-15T10:42:01.747Z,142.77
2018-12-15T10:44:32.373Z,129.73
2018-12-15T10:47:03.143Z,144.70
2018-12-15T10:49:36.007Z,131.47
2018-12-15T10:52:06.703Z,144.33
2018-12-15T10:54:37.553Z,138.80
2018-12-15T10:57:08.334Z,120.87
2018-12-15T10:59:38.987Z,113.97
2018-12-15T11:02:10.065Z,137.17
2018-12-15T11:04:40.745Z,117.13
2018-12-15T11:07:11.507Z,144.10
2018-12-15T11:09:42.164Z,82.67
2018-12-15T11:12:12.889Z,146.33
2018-12-15T11:14:44.675Z,133.77
2018-12-15T11:17:15.393Z,117.50
2018-12-15T11:19:46.082Z,129.93
2018-12-15T11:22:16.845Z,135.80
2018-12-15T11:24:47.485Z,96.27
2018-12-15T11:27:18.139Z,106.57
2018-12-15T11:29:48.779Z,135.00
2018-12-15T11:32:19.483Z,175.73
2018-12-15T11:34:50.198Z,133.30
2018-12-15T11:37:20.847Z,101.70
2018-12-15T11:39:51.534Z,113.77
2018-12-15T11:42:22.111Z,83.40
2018-12-15T11:44:52.716Z,83.50
2018-12-15T11:47:23.655Z,119.60
2018-12-15T11:49:54.371Z,79.87
2018-12-15T11:52:25.092Z,85.30
2018-12-15T11:54:55.764Z,77.30
2018-12-15T11:57:26.394Z,94.00
2018-12-15T11:59:58.167Z,81.20
2018-12-15T12:02:31.900Z,90.43
2018-12-15T12:05:50.592Z,72.50
2018-12-15T12:08:21.308Z,107.10
2018-12-15T12:10:51.995Z,113.83
2018-12-15T12:13:22.643Z,82.17
2018-12-15T12:15:53.390Z,80.53
2018-12-15T12:18:24.574Z,67.73
2018-12-15T12:21:11.345Z,72.93
2018-12-15T12:23:42.009Z,77.73
2018-12-15T12:26:14.776Z,86.83
2018-12-15T12:28:45.469Z,89.83
2018-12-15T12:31:16.080Z,84.43
2018-12-15T12:33:46.839Z,88.77
2018-12-15T12:36:17.467Z,90.23
2018-12-15T12:38:48.264Z,110.27
2018-12-15T12:41:18.916Z,95.17
2018-12-15T12:43:49.607Z,93.33
2018-12-15T12:46:20.178Z,90.60
2018-12-15T12:48:50.763Z,108.90
2018-12-15T12:51:21.420Z,117.53
2018-12-15T12:53:52.146Z,89.30
2018-12-15T12:56:22.747Z,87.93
2018-12-15T12:58:53.414Z,104.50
2018-12-15T13:01:31.857Z,77.33
2018-12-15T13:04:02.537Z,97.53
2018-12-15T13:06:33.231Z,91.83
2018-12-15T13:09:04.088Z,85.33
2018-12-15T13:11:35.916Z,100.30
2018-12-15T13:14:06.678Z,85.97
2018-12-15T13:16:37.306Z,98.27
2018-12-15T13:19:18.254Z,104.77
2018-12-15T13:21:48.980Z,121.57
2018-12-15T13:24:19.582Z,79.83
2018-12-15T13:26:50.264Z,100.13
2018-12-15T13:29:20.897Z,100.77
2018-12-15T13:31:51.500Z,111.50
2018-12-15T13:34:22.264Z,101.70
2018-12-15T13:36:53.055Z,101.93
2018-12-15T13:39:31.525Z,113.10
2018-12-15T13:42:02.592Z,91.73
2018-12-15T13:44:33.315Z,90.87
2018-12-15T13:47:04.066Z,91.70
2018-12-15T13:49:34.759Z,118.97
2018-12-15T13:52:05.727Z,84.90
2018-12-15T13:54:44.246Z,80.63
2018-12-15T13:57:14.955Z,109.07
2018-12-15T13:59:45.742Z,91.43
2018-12-15T14:02:16.400Z,89.83
2018-12-15T14:04:47.055Z,87.70
2018-12-15T14:07:17.763Z,85.53
2018-12-15T14:09:49.252Z,87.27
2018-12-15T14:12:20.049Z,80.93
2018-12-15T14:14:50.562Z,103.40
2018-12-15T14:17:21.308Z,99.20
2018-12-15T14:19:52.028Z,108.47
2018-12-15T14:22:22.740Z,93.87
2018-12-15T14:24:53.487Z,115.33
2018-12-15T14:27:24.201Z,114.83
2018-12-15T14:29:54.940Z,91.77
2018-12-15T14:32:25.607Z,101.63
2018-12-15T14:35:29.464Z,119.97
2018-12-15T14:38:07.980Z,108.33
2018-12-15T14:40:56.208Z,97.73
2018-12-15T14:43:26.990Z,96.50
2018-12-15T14:45:57.609Z,114.93
2018-12-15T14:48:28.287Z,100.23
2018-12-15T14:51:06.291Z,96.07
2018-12-15T14:57:26.185Z,118.23
2018-12-15T14:59:56.898Z,88.23
2018-12-15T15:02:35.545Z,114.87
2018-12-15T15:05:06.580Z,90.63
2018-12-15T15:07:37.326Z,86.90
2018-12-15T15:10:16.227Z,119.33
2018-12-15T15:12:46.918Z,98.07
2018-12-15T15:15:17.619Z,90.93
2018-12-15T15:17:48.291Z,74.27
2018-12-15T15:20:18.964Z,100.77
2018-12-15T15:22:49.572Z,102.20
2018-12-15T15:25:20.331Z,92.00
2018-12-15T15:27:51.006Z,105.70
2018-12-15T15:30:21.697Z,120.97
2018-12-15T15:32:52.377Z,106.90
2018-12-15T15:35:23.253Z,93.53
2018-12-15T15:37:55.619Z,85.50
2018-12-15T15:40:26.415Z,100.40
2018-12-15T15:42:57.106Z,116.93
2018-12-15T15:45:27.745Z,94.10
2018-12-15T15:47:58.455Z,121.37
2018-12-15T15:50:36.295Z,81.80
2018-12-15T15:53:04.677Z,80.17
2018-12-15T15:55:42.787Z,100.60
2018-12-15T15:58:13.442Z,106.10
2018-12-15T16:00:44.932Z,96.63
2018-12-15T16:03:22.997Z,101.80
2018-12-15T16:05:53.714Z,128.10
2018-12-15T16:08:24.536Z,105.27
2018-12-15T16:10:55.291Z,95.70
2018-12-15T16:13:26.220Z,104.93
2018-12-15T16:16:01.726Z,100.93
2018-12-15T16:21:53.845Z,87.50
2018-12-15T16:24:32.779Z,85.87
2018-12-15T16:27:12.635Z,92.10
2018-12-15T16:29:43.433Z,84.63
2018-12-15T16:32:14.225Z,77.40
2018-12-15T16:34:45.508Z,77.17
2018-12-15T16:37:50.715Z,66.67
2018-12-15T16:40:29.817Z,75.83
2018-12-15T16:43:00.631Z,77.80
2018-12-15T16:49:12.539Z,87.37
2018-12-15T16:51:43.466Z,99.27
2018-12-15T16:54:14.177Z,74.90
2018-12-15T16:56:44.908Z,79.13
2018-12-15T16:59:15.700Z,66.77
2018-12-15T17:01:46.384Z,75.67
2018-12-15T17:04:29.855Z,87.77
2018-12-15T17:07:03.677Z,78.90
2018-12-15T17:09:34.465Z,59.53
2018-12-15T17:12:05.240Z,76.27
2018-12-15T17:18:06.774Z,78.67
2018-12-15T17:20:58.147Z,82.07
2018-12-15T17:23:31.035Z,72.93
2018-12-15T17:26:10.376Z,91.37
2018-12-15T17:28:41.041Z,82.03
2018-12-15T17:31:22.537Z,92.27
2018-12-15T17:33:53.350Z,86.47
2018-12-15T17:36:32.972Z,79.63
2018-12-15T17:39:04.777Z,77.80
2018-12-15T17:41:43.533Z,52.17
2018-12-15T17:44:15.369Z,86.57
2018-12-15T17:46:53.737Z,47.40
2018-12-15T17:49:35.778Z,75.73
2018-12-15T17:52:16.033Z,77.03
2018-12-15T17:54:47.806Z,75.60
2018-12-15T17:57:18.550Z,65.90
2018-12-15T18:03:28.491Z,90.17
2018-12-15T18:05:59.155Z,79.83
2018-12-15T18:08:37.794Z,71.73
2018-12-15T18:11:08.437Z,75.03
2018-12-15T18:13:39.063Z,65.30
2018-12-15T18:16:09.794Z,86.53
2018-12-15T18:18:40.895Z,72.60
2018-12-15T18:21:11.575Z,70.20
2018-12-15T18:23:43.417Z,80.37
2018-12-15T18:26:14.100Z,80.73
2018-12-15T18:29:18.249Z,76.43
2018-12-15T18:31:48.935Z,84.13
2018-12-15T18:34:19.685Z,85.67
2018-12-15T18:36:57.448Z,78.60
2018-12-15T18:39:36.247Z,75.17
2018-12-15T18:45:45.234Z,79.23
2018-12-15T18:48:15.925Z,76.53
2018-12-15T18:50:46.650Z,86.20
2018-12-15T18:53:25.063Z,77.27
2018-12-15T18:56:03.734Z,90.80
2018-12-15T18:59:13.856Z,80.37
2018-12-15T19:02:07.266Z,79.23
2018-12-15T19:04:45.906Z,76.83
2018-12-15T19:07:24.324Z,61.33
2018-12-15T19:10:04.192Z,52.83
2018-12-15T19:12:35.055Z,67.37
2018-12-15T19:15:39.749Z,62.47
2018-12-15T19:18:18.057Z,69.80
2018-12-15T19:20:59.615Z,71.63
2018-12-15T20:36:43.398Z,67.67
2018-12-15T20:54:24.980Z,67.10
2018-12-15T21:26:51.184Z,79.63
2018-12-15T21:29:55.023Z,85.00
2018-12-15T21:32:39.679Z,81.87
2018-12-15T21:35:39.230Z,106.50
2018-12-15T21:42:02.794Z,98.93
2018-12-15T21:48:36.598Z,75.93
2018-12-15T21:51:41.923Z,81.07
2018-12-15T21:54:25.419Z,83.47
2018-12-15T21:57:04.477Z,81.23
2018-12-15T22:03:31.403Z,53.90
2018-12-15T22:06:10.495Z,50.27
2018-12-15T22:08:48.942Z,48.13
2018-12-15T22:11:21.497Z,50.73
2018-12-15T22:25:15.861Z,106.50
2018-12-15T22:39:04.426Z,106.80
2018-12-15T22:42:08.790Z,150.10
2018-12-15T22:44:50.436Z,129.73
2018-12-15T22:47:21.127Z,118.33
2018-12-15T22:50:05.923Z,100.07
2018-12-15T22:52:36.685Z,101.00
2018-12-15T22:55:28.995Z,86.77
2018-12-15T22:57:59.729Z,87.83
2018-12-15T23:00:43.490Z,75.13
2018-12-15T23:03:30.494Z,80.57
2018-12-15T23:06:12.167Z,89.37
2018-12-15T23:09:20.419Z,82.53
2018-12-15T23:11:58.402Z,84.40
2018-12-15T23:14:46.957Z,91.97
2018-12-15T23:17:40.658Z,96.07
2018-12-15T23:20:22.397Z,92.43
2018-12-15T23:22:53.243Z,95.13
2018-12-15T23:33:05.550Z,100.80
2018-12-15T23:39:14.321Z,93.93
2018-12-15T23:41:52.292Z,74.73
2018-12-15T23:44:52.680Z,80.77
2018-12-15T23:47:34.402Z,62.10
2018-12-15T23:50:13.017Z,67.23
2018-12-15T23:52:50.695Z,73.27
2018-12-15T23:55:31.515Z,82.83
2018-12-15T23:58:20.397Z,63.20
